createdAt,value
2018-02-03T00:00:33.612Z,-0.05
2018-02-03T00:01:33.588Z,-0.10
2018-02-03T00:02:33.589Z,-0.07
2018-02-03T00:03:33.573Z,-0.09
2018-02-03T00:04:33.560Z,-0.18
2018-02-03T00:05:33.554Z,-0.13
2018-02-03T00:06:33.538Z,-0.23
2018-02-03T00:07:33.525Z,-0.20
2018-02-03T00:08:33.514Z,-0.21
2018-02-03T00:09:33.500Z,-0.23
2018-02-03T00:10:33.488Z,-0.33
2018-02-03T00:11:33.465Z,-0.38
2018-02-03T00:12:33.461Z,-0.33
2018-02-03T00:13:33.452Z,-0.31
2018-02-03T00:14:33.428Z,-0.38
2018-02-03T00:15:33.428Z,-0.42
2018-02-03T00:16:33.411Z,-0.38
2018-02-03T00:17:33.418Z,-0.45
2018-02-03T00:18:33.392Z,-0.42
2018-02-03T00:19:33.373Z,-0.49
2018-02-03T00:20:33.363Z,-0.57
2018-02-03T00:21:33.351Z,-0.56
2018-02-03T00:22:33.337Z,-0.59
2018-02-03T00:23:33.328Z,-0.60
2018-02-03T00:24:33.329Z,-0.54
2018-02-03T00:25:33.298Z,-0.53
2018-02-03T00:26:33.300Z,-0.59
2018-02-03T00:27:33.277Z,-0.66
2018-02-03T00:28:33.264Z,-0.66
2018-02-03T00:29:33.343Z,-0.69
2018-02-03T00:30:33.236Z,-0.78
2018-02-03T00:31:33.226Z,-0.80
2018-02-03T00:32:33.216Z,-0.81
2018-02-03T00:33:33.205Z,-0.89
2018-02-03T00:34:33.190Z,-0.85
2018-02-03T00:35:33.177Z,-0.89
2018-02-03T00:36:33.174Z,-0.87
2018-02-03T00:37:33.152Z,-0.96
2018-02-03T00:38:33.135Z,-0.97
2018-02-03T00:39:33.124Z,-0.93
2018-02-03T00:40:33.116Z,-1.00
2018-02-03T00:41:33.093Z,-0.93
2018-02-03T00:42:33.088Z,-0.99
2018-02-03T00:43:33.072Z,-0.99
2018-02-03T00:44:33.105Z,-1.06
2018-02-03T00:45:33.053Z,-1.06
2018-02-03T00:46:33.034Z,-1.04
2018-02-03T00:47:33.022Z,-1.04
2018-02-03T00:48:33.009Z,-1.03
2018-02-03T00:49:32.995Z,-1.09
2018-02-03T00:50:32.980Z,-1.11
2018-02-03T00:51:32.973Z,-1.14
2018-02-03T00:52:32.957Z,-1.15
2018-02-03T00:53:32.949Z,-1.15
2018-02-03T00:54:32.932Z,-1.27
2018-02-03T00:55:32.917Z,-1.30
2018-02-03T00:56:32.898Z,-1.30
2018-02-03T00:57:32.891Z,-1.29
2018-02-03T00:58:32.878Z,-1.40
2018-02-03T00:59:32.864Z,-1.38
2018-02-03T01:00:32.856Z,-1.46
2018-02-03T01:01:32.844Z,-1.48
2018-02-03T01:02:32.832Z,-1.53
2018-02-03T01:03:32.816Z,-1.69
2018-02-03T01:04:32.797Z,-1.71
2018-02-03T01:05:32.787Z,-1.78
2018-02-03T01:06:32.820Z,-1.78
2018-02-03T01:07:32.761Z,-1.75
2018-02-03T01:08:32.748Z,-1.86
2018-02-03T01:09:32.733Z,-1.84
2018-02-03T01:10:32.738Z,-1.90
2018-02-03T01:11:32.712Z,-1.93
2018-02-03T01:12:32.698Z,-2.07
2018-02-03T01:13:32.683Z,-2.00
2018-02-03T01:14:32.671Z,-1.90
2018-02-03T01:15:32.667Z,-1.93
2018-02-03T01:16:32.662Z,-1.99
2018-02-03T01:17:32.633Z,-1.93
2018-02-03T01:18:32.615Z,-1.86
2018-02-03T01:19:32.616Z,-1.76
2018-02-03T01:20:32.597Z,-1.64
2018-02-03T01:21:32.575Z,-1.64
2018-02-03T01:22:32.565Z,-1.54
2018-02-03T01:23:32.545Z,-1.43
2018-02-03T01:24:32.539Z,-1.45
2018-02-03T01:25:32.520Z,-1.50
2018-02-03T01:26:32.532Z,-1.50
2018-02-03T01:27:32.501Z,-1.48
2018-02-03T01:28:32.497Z,-1.45
2018-02-03T01:29:32.470Z,-1.43
2018-02-03T01:30:32.460Z,-1.36
2018-02-03T01:31:32.458Z,-1.38
2018-02-03T01:32:32.442Z,-1.22
2018-02-03T01:33:32.420Z,-1.30
2018-02-03T01:34:32.405Z,-1.35
2018-02-03T01:35:32.392Z,-1.30
2018-02-03T01:36:32.376Z,-1.39
2018-02-03T01:37:32.372Z,-1.36
2018-02-03T01:38:32.358Z,-1.30
2018-02-03T01:39:32.342Z,-1.30
2018-02-03T01:40:32.331Z,-1.30
2018-02-03T01:41:32.377Z,-1.32
2018-02-03T01:42:32.386Z,-1.29
2018-02-03T01:43:32.281Z,-1.33
2018-02-03T01:44:32.273Z,-1.36
2018-02-03T01:45:32.262Z,-1.40
2018-02-03T01:46:32.242Z,-1.38
2018-02-03T01:47:32.251Z,-1.42
2018-02-03T01:48:32.222Z,-1.48
2018-02-03T01:49:32.204Z,-1.48
2018-02-03T01:50:32.192Z,-1.48
2018-02-03T01:51:32.183Z,-1.45
2018-02-03T01:52:32.165Z,-1.48
2018-02-03T01:53:32.152Z,-1.51
2018-02-03T01:54:32.139Z,-1.56
2018-02-03T01:55:32.126Z,-1.61
2018-02-03T01:56:32.114Z,-1.68
2018-02-03T01:57:32.099Z,-1.71
2018-02-03T01:58:32.086Z,-1.69
2018-02-03T01:59:32.070Z,-1.72
2018-02-03T02:00:32.059Z,-1.58
2018-02-03T02:01:32.822Z,-1.60
2018-02-03T02:02:32.032Z,-1.57
2018-02-03T02:03:32.022Z,-1.66
2018-02-03T02:04:32.009Z,-1.69
2018-02-03T02:05:31.995Z,-1.75
2018-02-03T02:06:31.980Z,-1.69
2018-02-03T02:07:31.984Z,-1.78
2018-02-03T02:08:31.954Z,-1.69
2018-02-03T02:09:31.955Z,-1.79
2018-02-03T02:10:31.923Z,-1.78
2018-02-03T02:11:31.911Z,-1.75
2018-02-03T02:12:31.901Z,-1.69
2018-02-03T02:13:31.904Z,-1.57
2018-02-03T02:14:31.875Z,-1.63
2018-02-03T02:15:31.860Z,-1.60
2018-02-03T02:16:31.850Z,-1.58
2018-02-03T02:17:31.833Z,-1.61
2018-02-03T02:18:31.823Z,-1.60
2018-02-03T02:19:31.803Z,-1.56
2018-02-03T02:20:31.793Z,-1.45
2018-02-03T02:21:31.782Z,-1.53
2018-02-03T02:22:31.765Z,-1.42
2018-02-03T02:23:31.751Z,-1.46
2018-02-03T02:24:31.741Z,-1.46
2018-02-03T02:25:31.737Z,-1.39
2018-02-03T02:26:31.854Z,-1.33
2018-02-03T02:27:31.701Z,-1.30
2018-02-03T02:28:31.712Z,-1.30
2018-02-03T02:29:31.687Z,-1.21
2018-02-03T02:30:31.687Z,-1.24
2018-02-03T02:31:31.691Z,-1.12
2018-02-03T02:32:31.637Z,-1.07
2018-02-03T02:33:31.640Z,-1.12
2018-02-03T02:34:31.684Z,-1.09
2018-02-03T02:35:31.685Z,-1.12
2018-02-03T02:36:31.684Z,-1.09
2018-02-03T02:37:31.690Z,-1.03
2018-02-03T02:38:31.660Z,-1.04
2018-02-03T02:39:31.677Z,-1.09
2018-02-03T02:40:31.556Z,-1.11
2018-02-03T02:41:31.526Z,-1.07
2018-02-03T02:42:31.508Z,-1.09
2018-02-03T02:43:31.527Z,-1.14
2018-02-03T02:44:31.513Z,-1.15
2018-02-03T02:45:31.527Z,-1.17
2018-02-03T02:46:31.454Z,-1.17
2018-02-03T02:47:31.477Z,-1.17
2018-02-03T02:48:31.515Z,-1.19
2018-02-03T02:49:31.445Z,-1.12
2018-02-03T02:50:31.415Z,-1.17
2018-02-03T02:51:31.425Z,-1.25
2018-02-03T02:52:31.378Z,-1.19
2018-02-03T02:53:31.438Z,-1.12
2018-02-03T02:54:31.449Z,-1.15
2018-02-03T02:55:31.394Z,-1.11
2018-02-03T02:56:31.328Z,-1.06
2018-02-03T02:57:31.464Z,-1.12
2018-02-03T02:58:31.320Z,-1.01
2018-02-03T02:59:31.476Z,-0.94
2018-02-03T03:00:31.300Z,-0.96
2018-02-03T03:01:31.272Z,-0.84
2018-02-03T03:02:31.269Z,-0.75
2018-02-03T03:03:31.266Z,-0.84
2018-02-03T03:04:31.261Z,-0.80
2018-02-03T03:05:31.249Z,-0.87
2018-02-03T03:06:31.216Z,-0.80
2018-02-03T03:07:31.221Z,-0.87
2018-02-03T03:08:31.220Z,-0.80
2018-02-03T03:09:31.236Z,-0.81
2018-02-03T03:10:31.246Z,-0.84
2018-02-03T03:11:31.140Z,-0.82
2018-02-03T03:12:31.164Z,-0.85
2018-02-03T03:13:31.159Z,-0.82
2018-02-03T03:14:31.168Z,-0.75
2018-02-03T03:15:31.096Z,-0.81
2018-02-03T03:16:31.157Z,-0.77
2018-02-03T03:17:31.059Z,-0.66
2018-02-03T03:18:31.181Z,-0.63
2018-02-03T03:19:31.104Z,-0.64
2018-02-03T03:20:31.105Z,-0.70
2018-02-03T03:21:31.025Z,-0.67
2018-02-03T03:22:30.995Z,-0.72
2018-02-03T03:23:31.018Z,-0.69
2018-02-03T03:24:31.010Z,-0.72
2018-02-03T03:25:31.030Z,-0.70
2018-02-03T03:26:30.954Z,-0.67
2018-02-03T03:27:31.034Z,-0.67
2018-02-03T03:28:31.030Z,-0.56
2018-02-03T03:29:30.956Z,-0.54
2018-02-03T03:30:31.030Z,-0.51
2018-02-03T03:31:30.952Z,-0.62
2018-02-03T03:32:30.869Z,-0.64
2018-02-03T03:33:30.891Z,-0.53
2018-02-03T03:34:30.882Z,-0.57
2018-02-03T03:35:30.897Z,-0.64
2018-02-03T03:36:30.827Z,-0.59
2018-02-03T03:37:30.820Z,-0.57
2018-02-03T03:38:30.910Z,-0.51
2018-02-03T03:39:30.865Z,-0.67
2018-02-03T03:40:30.924Z,-0.57
2018-02-03T03:41:30.931Z,-0.56
2018-02-03T03:42:30.736Z,-0.53
2018-02-03T03:43:30.744Z,-0.59
2018-02-03T03:44:30.754Z,-0.64
2018-02-03T03:45:30.762Z,-0.62
2018-02-03T03:46:30.769Z,-0.54
2018-02-03T03:47:30.676Z,-0.59
2018-02-03T03:48:30.715Z,-0.62
2018-02-03T03:49:30.727Z,-0.60
2018-02-03T03:50:30.729Z,-0.63
2018-02-03T03:51:30.731Z,-0.63
2018-02-03T03:52:30.702Z,-0.54
2018-02-03T03:53:30.598Z,-0.62
2018-02-03T03:54:30.611Z,-0.63
2018-02-03T03:55:30.619Z,-0.62
2018-02-03T03:56:30.562Z,-0.60
2018-02-03T03:57:30.625Z,-0.59
2018-02-03T03:58:30.556Z,-0.57
2018-02-03T03:59:30.546Z,-0.51
2018-02-03T04:00:30.549Z,-0.54
2018-02-03T04:01:30.503Z,-0.51
2018-02-03T04:02:30.569Z,-0.48
2018-02-03T04:03:30.498Z,-0.48
2018-02-03T04:04:30.547Z,-0.42
2018-02-03T04:05:30.478Z,-0.53
2018-02-03T04:06:30.486Z,-0.46
2018-02-03T04:07:30.422Z,-0.44
2018-02-03T04:08:30.436Z,-0.48
2018-02-03T04:09:30.420Z,-0.46
2018-02-03T04:10:30.420Z,-0.38
2018-02-03T04:11:30.414Z,-0.44
2018-02-03T04:12:30.352Z,-0.44
2018-02-03T04:13:30.427Z,-0.36
2018-02-03T04:14:30.402Z,-0.35
2018-02-03T04:15:30.320Z,-0.38
2018-02-03T04:16:30.308Z,-0.35
2018-02-03T04:17:30.352Z,-0.31
2018-02-03T04:18:30.360Z,-0.38
2018-02-03T04:19:30.339Z,-0.33
2018-02-03T04:20:30.254Z,-0.39
2018-02-03T04:21:30.277Z,-0.39
2018-02-03T04:22:30.234Z,-0.39
2018-02-03T04:23:30.287Z,-0.38
2018-02-03T04:24:30.296Z,-0.39
2018-02-03T04:25:30.254Z,-0.41
2018-02-03T04:26:30.183Z,-0.41
2018-02-03T04:27:30.232Z,-0.41
2018-02-03T04:28:30.156Z,-0.38
2018-02-03T04:29:30.225Z,-0.42
2018-02-03T04:30:30.160Z,-0.41
2018-02-03T04:31:30.239Z,-0.42
2018-02-03T04:32:30.236Z,-0.33
2018-02-03T04:33:30.300Z,-0.38
2018-02-03T04:34:30.159Z,-0.42
2018-02-03T04:35:30.148Z,-0.39
2018-02-03T04:36:30.072Z,-0.38
2018-02-03T04:37:30.073Z,-0.38
2018-02-03T04:38:30.040Z,-0.42
2018-02-03T04:39:30.027Z,-0.38
2018-02-03T04:40:30.074Z,-0.31
2018-02-03T04:41:29.994Z,-0.39
2018-02-03T04:42:30.061Z,-0.42
2018-02-03T04:43:30.063Z,-0.42
2018-02-03T04:44:30.064Z,-0.42
2018-02-03T04:45:30.066Z,-0.33
2018-02-03T04:46:29.956Z,-0.36
2018-02-03T04:47:29.925Z,-0.26
2018-02-03T04:48:29.943Z,-0.41
2018-02-03T04:49:29.947Z,-0.36
2018-02-03T04:50:29.948Z,-0.27
2018-02-03T04:51:29.892Z,-0.41
2018-02-03T04:52:29.859Z,-0.24
2018-02-03T04:53:29.968Z,-0.38
2018-02-03T04:54:29.971Z,-0.31
2018-02-03T04:55:29.946Z,-0.35
2018-02-03T04:56:29.984Z,-0.36
2018-02-03T04:57:29.790Z,-0.35
2018-02-03T04:58:29.788Z,-0.38
2018-02-03T04:59:29.789Z,-0.35
2018-02-03T05:00:29.791Z,-0.39
2018-02-03T05:01:29.773Z,-0.35
2018-02-03T05:02:29.731Z,-0.35
2018-02-03T05:03:29.737Z,-0.39
2018-02-03T05:04:29.728Z,-0.38
2018-02-03T05:05:29.801Z,-0.38
2018-02-03T05:06:29.799Z,-0.36
2018-02-03T05:07:29.725Z,-0.38
2018-02-03T05:08:29.724Z,-0.36
2018-02-03T05:09:29.689Z,-0.39
2018-02-03T05:10:29.678Z,-0.36
2018-02-03T05:11:29.682Z,-0.38
2018-02-03T05:12:29.603Z,-0.38
2018-02-03T05:13:29.613Z,-0.39
2018-02-03T05:14:29.595Z,-0.39
2018-02-03T05:15:29.568Z,-0.28
2018-02-03T05:16:29.614Z,-0.38
2018-02-03T05:17:29.545Z,-0.35
2018-02-03T05:18:29.575Z,-0.28
2018-02-03T05:19:29.582Z,-0.38
2018-02-03T05:20:29.539Z,-0.31
2018-02-03T05:21:29.575Z,-0.35
2018-02-03T05:22:29.481Z,-0.28
2018-02-03T05:23:29.546Z,-0.38
2018-02-03T05:24:29.517Z,-0.23
2018-02-03T05:25:29.548Z,-0.31
2018-02-03T05:26:29.430Z,-0.41
2018-02-03T05:27:29.420Z,-0.26
2018-02-03T05:28:29.487Z,-0.31
2018-02-03T05:29:29.436Z,-0.28
2018-02-03T05:30:29.479Z,-0.33
2018-02-03T05:31:29.407Z,-0.30
2018-02-03T05:32:29.359Z,-0.28
2018-02-03T05:33:29.425Z,-0.30
2018-02-03T05:34:29.408Z,-0.27
2018-02-03T05:35:29.324Z,-0.27
2018-02-03T05:36:29.404Z,-0.33
2018-02-03T05:37:29.297Z,-0.38
2018-02-03T05:38:29.350Z,-0.28
2018-02-03T05:39:29.322Z,-0.27
2018-02-03T05:40:29.306Z,-0.35
2018-02-03T05:41:29.251Z,-0.33
2018-02-03T05:42:29.277Z,-0.23
2018-02-03T05:43:29.271Z,-0.28
2018-02-03T05:44:29.299Z,-0.27
2018-02-03T05:45:29.196Z,-0.24
2018-02-03T05:46:29.230Z,-0.30
2018-02-03T05:47:29.238Z,-0.31
2018-02-03T05:48:29.156Z,-0.30
2018-02-03T05:49:29.304Z,-0.27
2018-02-03T05:50:29.146Z,-0.26
2018-02-03T05:51:29.142Z,-0.28
2018-02-03T05:52:29.126Z,-0.33
2018-02-03T05:53:29.095Z,-0.28
2018-02-03T05:54:29.148Z,-0.38
2018-02-03T05:55:29.093Z,-0.26
2018-02-03T05:56:29.093Z,-0.28
2018-02-03T05:57:29.099Z,-0.31
2018-02-03T05:58:29.036Z,-0.33
2018-02-03T05:59:29.077Z,-0.31
2018-02-03T06:00:29.083Z,-0.35
2018-02-03T06:01:29.007Z,-0.30
2018-02-03T06:02:29.100Z,-0.35
2018-02-03T06:03:28.968Z,-0.35
2018-02-03T06:04:29.011Z,-0.36
2018-02-03T06:05:29.022Z,-0.35
2018-02-03T06:06:29.005Z,-0.31
2018-02-03T06:07:28.917Z,-0.30
2018-02-03T06:08:29.028Z,-0.33
2018-02-03T06:09:28.938Z,-0.26
2018-02-03T06:10:28.898Z,-0.21
2018-02-03T06:11:28.867Z,-0.28
2018-02-03T06:12:28.857Z,-0.39
2018-02-03T06:13:28.866Z,-0.38
2018-02-03T06:14:28.871Z,-0.24
2018-02-03T06:15:28.828Z,-0.21
2018-02-03T06:16:28.883Z,-0.26
2018-02-03T06:17:28.814Z,-0.30
2018-02-03T06:18:28.838Z,-0.30
2018-02-03T06:19:28.840Z,-0.31
2018-02-03T06:20:28.806Z,-0.33
2018-02-03T06:21:28.817Z,-0.38
2018-02-03T06:22:28.759Z,-0.31
2018-02-03T06:23:28.741Z,-0.41
2018-02-03T06:24:28.752Z,-0.30
2018-02-03T06:25:28.742Z,-0.35
2018-02-03T06:26:28.798Z,-0.30
2018-02-03T06:27:28.667Z,-0.35
2018-02-03T06:28:28.723Z,-0.31
2018-02-03T06:29:28.728Z,-0.36
2018-02-03T06:30:28.713Z,-0.35
2018-02-03T06:31:28.714Z,-0.38
2018-02-03T06:32:28.675Z,-0.30
2018-02-03T06:33:28.609Z,-0.26
2018-02-03T06:34:28.589Z,-0.23
2018-02-03T06:35:28.597Z,-0.23
2018-02-03T06:36:28.604Z,-0.23
2018-02-03T06:37:28.616Z,-0.36
2018-02-03T06:38:28.597Z,-0.26
2018-02-03T06:39:28.605Z,-0.35
2018-02-03T06:40:28.579Z,-0.28
2018-02-03T06:41:28.617Z,-0.24
2018-02-03T06:42:28.614Z,-0.20
2018-02-03T06:43:28.475Z,-0.20
2018-02-03T06:44:29.375Z,-0.15
2018-02-03T06:45:28.484Z,-0.15
2018-02-03T06:46:28.446Z,-0.10
2018-02-03T06:47:28.451Z,-0.15
2018-02-03T06:48:28.482Z,-0.09
2018-02-03T06:49:28.471Z,-0.10
2018-02-03T06:50:28.476Z,-0.07
2018-02-03T06:51:28.480Z,-0.17
2018-02-03T06:52:28.409Z,-0.12
2018-02-03T06:53:28.476Z,-0.13
2018-02-03T06:54:28.378Z,-0.17
2018-02-03T06:55:28.371Z,-0.15
2018-02-03T06:56:28.365Z,-0.03
2018-02-03T06:57:28.330Z,-0.18
2018-02-03T06:58:28.338Z,-0.18
2018-02-03T06:59:28.346Z,-0.15
2018-02-03T07:00:28.264Z,-0.09
2018-02-03T07:01:28.338Z,-0.12
2018-02-03T07:02:28.269Z,-0.07
2018-02-03T07:03:28.299Z,-0.10
2018-02-03T07:04:28.359Z,-0.20
2018-02-03T07:05:28.372Z,-0.23
2018-02-03T07:06:28.257Z,-0.21
2018-02-03T07:07:28.191Z,-0.23
2018-02-03T07:08:28.205Z,-0.18
2018-02-03T07:09:28.202Z,-0.15
2018-02-03T07:10:28.194Z,-0.10
2018-02-03T07:11:28.153Z,-0.20
2018-02-03T07:12:28.179Z,-0.21
2018-02-03T07:13:28.773Z,-0.18
2018-02-03T07:14:28.136Z,-0.15
2018-02-03T07:15:28.141Z,-0.12
2018-02-03T07:16:28.129Z,-0.15
2018-02-03T07:17:28.131Z,-0.21
2018-02-03T07:18:28.067Z,-0.15
2018-02-03T07:19:28.060Z,-0.15
2018-02-03T07:20:28.078Z,-0.10
2018-02-03T07:21:28.094Z,-0.06
2018-02-03T07:22:28.855Z,-0.10
2018-02-03T07:23:28.072Z,-0.13
2018-02-03T07:24:28.108Z,-0.09
2018-02-03T07:25:28.024Z,-0.05
2018-02-03T07:26:28.937Z,-0.02
2018-02-03T07:27:27.962Z,0.05
2018-02-03T07:28:27.930Z,0.00
2018-02-03T07:29:27.927Z,0.02
2018-02-03T07:30:28.776Z,-0.02
2018-02-03T07:31:27.922Z,0.05
2018-02-03T07:32:27.878Z,0.08
2018-02-03T07:33:27.881Z,0.08
2018-02-03T07:34:27.886Z,0.08
2018-02-03T07:35:27.889Z,0.05
2018-02-03T07:36:27.886Z,0.15
2018-02-03T07:37:27.817Z,0.15
2018-02-03T07:38:27.823Z,0.15
2018-02-03T07:39:27.924Z,0.19
2018-02-03T07:40:27.811Z,0.19
2018-02-03T07:41:27.774Z,0.19
2018-02-03T07:42:27.764Z,0.19
2018-02-03T07:43:27.778Z,0.24
2018-02-03T07:44:27.800Z,0.26
2018-02-03T07:45:27.727Z,0.34
2018-02-03T07:46:27.777Z,0.27
2018-02-03T07:47:27.751Z,0.37
2018-02-03T07:48:27.690Z,0.24
2018-02-03T07:49:27.685Z,0.29
2018-02-03T07:50:27.762Z,0.45
2018-02-03T07:51:27.665Z,0.36
2018-02-03T07:52:27.671Z,0.44
2018-02-03T07:53:27.653Z,0.37
2018-02-03T07:54:27.644Z,0.36
2018-02-03T07:55:27.604Z,0.52
2018-02-03T07:56:27.582Z,0.49
2018-02-03T07:57:27.673Z,0.49
2018-02-03T07:58:27.660Z,0.61
2018-02-03T07:59:27.567Z,0.61
2018-02-03T08:00:27.530Z,0.58
2018-02-03T08:01:27.646Z,0.59
2018-02-03T08:02:27.510Z,0.59
2018-02-03T08:03:27.541Z,0.64
2018-02-03T08:04:27.490Z,0.63
2018-02-03T08:05:27.488Z,0.68
2018-02-03T08:06:28.398Z,0.66
2018-02-03T08:07:27.515Z,0.70
2018-02-03T08:08:27.484Z,0.70
2018-02-03T08:09:27.498Z,0.70
2018-02-03T08:10:27.496Z,0.81
2018-02-03T08:11:27.419Z,0.74
2018-02-03T08:12:27.404Z,0.71
2018-02-03T08:13:27.394Z,0.73
2018-02-03T08:14:27.405Z,0.82
2018-02-03T08:15:27.413Z,0.88
2018-02-03T08:16:27.391Z,0.89
2018-02-03T08:17:27.384Z,0.94
2018-02-03T08:18:27.414Z,0.92
2018-02-03T08:19:27.417Z,0.99
2018-02-03T08:20:27.417Z,0.99
2018-02-03T08:21:27.419Z,1.07
2018-02-03T08:22:27.418Z,1.00
2018-02-03T08:23:27.429Z,1.02
2018-02-03T08:24:27.322Z,1.02
2018-02-03T08:25:27.255Z,1.16
2018-02-03T08:26:27.315Z,1.16
2018-02-03T08:27:27.259Z,1.14
2018-02-03T08:28:27.227Z,1.10
2018-02-03T08:29:27.220Z,1.18
2018-02-03T08:30:27.281Z,1.21
2018-02-03T08:31:27.288Z,1.21
2018-02-03T08:32:27.215Z,1.24
2018-02-03T08:33:27.168Z,1.12
2018-02-03T08:34:27.158Z,1.24
2018-02-03T08:35:27.169Z,1.25
2018-02-03T08:36:27.920Z,1.27
2018-02-03T08:37:27.193Z,1.42
2018-02-03T08:38:27.155Z,1.38
2018-02-03T08:39:27.133Z,1.49
2018-02-03T08:40:27.096Z,1.48
2018-02-03T08:41:27.072Z,1.48
2018-02-03T08:42:27.781Z,1.50
2018-02-03T08:43:27.085Z,1.60
2018-02-03T08:44:27.142Z,1.53
2018-02-03T08:45:27.036Z,1.49
2018-02-03T08:46:27.041Z,1.53
2018-02-03T08:47:27.035Z,1.61
2018-02-03T08:48:27.030Z,1.43
2018-02-03T08:49:27.021Z,1.52
2018-02-03T08:50:27.009Z,1.50
2018-02-03T08:51:27.017Z,1.50
2018-02-03T08:52:27.014Z,1.48
2018-02-03T08:53:26.982Z,1.48
2018-02-03T08:54:26.968Z,1.48
2018-02-03T08:55:26.976Z,1.48
2018-02-03T08:56:26.946Z,1.48
2018-02-03T08:57:26.943Z,1.46
2018-02-03T08:58:26.916Z,1.56
2018-02-03T08:59:26.934Z,1.53
2018-02-03T09:00:26.948Z,1.53
2018-02-03T09:01:26.893Z,1.56
2018-02-03T09:02:26.846Z,1.56
2018-02-03T09:03:26.916Z,1.48
2018-02-03T09:04:26.871Z,1.48
2018-02-03T09:05:26.922Z,1.48
2018-02-03T09:06:26.856Z,1.57
2018-02-03T09:07:26.883Z,1.48
2018-02-03T09:08:26.836Z,1.57
2018-02-03T09:09:26.872Z,1.58
2018-02-03T09:10:26.920Z,1.70
2018-02-03T09:11:26.885Z,1.76
2018-02-03T09:12:26.957Z,1.78
2018-02-03T09:13:26.903Z,1.79
2018-02-03T09:14:26.782Z,1.81
2018-02-03T09:15:26.736Z,1.82
2018-02-03T09:16:26.762Z,1.85
2018-02-03T09:17:26.749Z,1.97
2018-02-03T09:18:26.722Z,1.93
2018-02-03T09:19:27.423Z,2.00
2018-02-03T09:20:26.674Z,1.98
2018-02-03T09:21:26.681Z,2.14
2018-02-03T09:22:26.679Z,2.01
2018-02-03T09:23:26.674Z,2.04
2018-02-03T09:24:26.684Z,2.12
2018-02-03T09:25:26.685Z,2.14
2018-02-03T09:26:26.651Z,2.23
2018-02-03T09:27:26.697Z,2.22
2018-02-03T09:28:26.621Z,2.12
2018-02-03T09:29:26.608Z,2.04
2018-02-03T09:30:26.601Z,2.14
2018-02-03T09:31:26.663Z,2.16
2018-02-03T09:32:26.660Z,2.10
2018-02-03T09:33:27.404Z,2.15
2018-02-03T09:34:26.674Z,2.10
2018-02-03T09:35:26.549Z,2.18
2018-02-03T09:36:26.549Z,1.95
2018-02-03T09:37:26.696Z,2.14
2018-02-03T09:38:26.522Z,2.19
2018-02-03T09:39:26.530Z,2.16
2018-02-03T09:40:26.513Z,2.12
2018-02-03T09:41:27.420Z,2.12
2018-02-03T09:42:26.474Z,2.12
2018-02-03T09:43:26.475Z,2.08
2018-02-03T09:44:26.476Z,2.28
2018-02-03T09:45:26.484Z,2.18
2018-02-03T09:46:26.470Z,2.08
2018-02-03T09:47:26.417Z,2.03
2018-02-03T09:48:26.439Z,2.03
2018-02-03T09:49:26.541Z,2.04
2018-02-03T09:50:27.395Z,1.98
2018-02-03T09:51:26.379Z,2.14
2018-02-03T09:52:26.412Z,2.05
2018-02-03T09:53:26.410Z,2.15
2018-02-03T09:54:26.406Z,2.01
2018-02-03T09:55:26.402Z,2.16
2018-02-03T09:56:26.420Z,2.10
2018-02-03T09:57:26.363Z,2.19
2018-02-03T09:58:26.343Z,2.21
2018-02-03T09:59:26.350Z,2.05
2018-02-03T10:00:26.447Z,2.08
2018-02-03T10:01:26.311Z,2.16
2018-02-03T10:02:26.432Z,2.08
2018-02-03T10:03:26.309Z,2.18
2018-02-03T10:04:26.252Z,2.12
2018-02-03T10:05:26.265Z,2.16
2018-02-03T10:06:26.310Z,2.16
2018-02-03T10:07:26.241Z,2.07
2018-02-03T10:08:26.211Z,2.18
2018-02-03T10:09:26.241Z,2.25
2018-02-03T10:10:26.231Z,2.23
2018-02-03T10:11:26.199Z,2.23
2018-02-03T10:12:26.174Z,2.22
2018-02-03T10:13:26.184Z,2.12
2018-02-03T10:14:26.325Z,2.14
2018-02-03T10:15:26.794Z,2.12
2018-02-03T10:16:26.150Z,2.23
2018-02-03T10:17:26.122Z,2.12
2018-02-03T10:18:26.144Z,2.21
2018-02-03T10:19:26.141Z,2.22
2018-02-03T10:20:26.110Z,2.32
2018-02-03T10:21:26.089Z,2.34
2018-02-03T10:22:26.077Z,2.32
2018-02-03T10:23:26.109Z,2.37
2018-02-03T10:24:26.080Z,2.46
2018-02-03T10:25:26.052Z,2.54
2018-02-03T10:26:26.090Z,2.46
2018-02-03T10:27:26.033Z,2.52
2018-02-03T10:28:26.024Z,2.57
2018-02-03T10:29:26.060Z,2.65
2018-02-03T10:30:26.022Z,2.68
2018-02-03T10:31:25.999Z,2.68
2018-02-03T10:32:25.999Z,2.73
2018-02-03T10:33:26.058Z,2.76
2018-02-03T10:34:25.963Z,2.80
2018-02-03T10:35:25.946Z,2.88
2018-02-03T10:36:25.932Z,3.03
2018-02-03T10:37:25.928Z,3.01
2018-02-03T10:38:25.920Z,3.24
2018-02-03T10:39:25.910Z,3.34
2018-02-03T10:40:25.923Z,3.46
2018-02-03T10:41:25.899Z,3.50
2018-02-03T10:42:25.913Z,3.50
2018-02-03T10:43:25.905Z,3.53
2018-02-03T10:44:25.898Z,3.61
2018-02-03T10:45:25.934Z,3.63
2018-02-03T10:46:25.850Z,3.64
2018-02-03T10:47:25.921Z,3.81
2018-02-03T10:48:25.855Z,4.00
2018-02-03T10:49:25.848Z,4.04
2018-02-03T10:50:25.874Z,3.99
2018-02-03T10:51:25.813Z,4.04
2018-02-03T10:52:25.813Z,4.14
2018-02-03T10:53:25.845Z,4.43
2018-02-03T10:54:26.386Z,4.43
2018-02-03T10:55:25.806Z,4.56
2018-02-03T10:56:25.810Z,4.58
2018-02-03T10:57:25.784Z,4.64
2018-02-03T10:58:25.863Z,4.53
2018-02-03T10:59:25.791Z,4.39
2018-02-03T11:00:25.784Z,4.25
2018-02-03T11:01:25.805Z,4.30
2018-02-03T11:02:25.756Z,4.18
2018-02-03T11:03:25.737Z,4.16
2018-02-03T11:04:25.768Z,4.24
2018-02-03T11:05:25.731Z,4.00
2018-02-03T11:06:25.773Z,4.02
2018-02-03T11:07:25.816Z,3.88
2018-02-03T11:08:25.726Z,3.68
2018-02-03T11:09:25.770Z,3.88
2018-02-03T11:10:25.741Z,3.82
2018-02-03T11:11:25.724Z,3.46
2018-02-03T11:12:25.722Z,3.88
2018-02-03T11:13:25.693Z,4.32
2018-02-03T11:14:25.729Z,4.20
2018-02-03T11:15:25.842Z,4.57
2018-02-03T11:16:25.698Z,4.92
2018-02-03T11:17:25.694Z,4.90
2018-02-03T11:18:25.702Z,5.13
2018-02-03T11:19:25.719Z,5.97
2018-02-03T11:20:25.676Z,6.52
2018-02-03T11:21:25.684Z,6.60
2018-02-03T11:22:25.678Z,5.95
2018-02-03T11:23:26.319Z,5.33
2018-02-03T11:24:25.661Z,4.50
2018-02-03T11:25:25.661Z,4.24
2018-02-03T11:26:25.643Z,3.89
2018-02-03T11:27:25.645Z,3.67
2018-02-03T11:28:25.648Z,3.71
2018-02-03T11:29:25.638Z,3.71
2018-02-03T11:30:25.628Z,4.30
2018-02-03T11:31:25.632Z,4.90
2018-02-03T11:32:25.620Z,6.13
2018-02-03T11:33:25.643Z,6.95
2018-02-03T11:34:25.579Z,7.07
2018-02-03T11:35:25.609Z,8.27
2018-02-03T11:36:25.596Z,8.31
2018-02-03T11:37:25.578Z,8.79
2018-02-03T11:38:25.596Z,7.36
2018-02-03T11:39:26.417Z,6.74
2018-02-03T11:40:26.439Z,6.31
2018-02-03T11:41:25.618Z,6.43
2018-02-03T11:42:25.610Z,6.50
2018-02-03T11:43:26.406Z,6.49
2018-02-03T11:44:25.560Z,6.49
2018-02-03T11:45:25.555Z,6.46
2018-02-03T11:46:25.613Z,6.35
2018-02-03T11:47:25.662Z,6.06
2018-02-03T11:48:25.595Z,6.19
2018-02-03T11:49:25.585Z,6.59
2018-02-03T11:50:25.554Z,6.71
2018-02-03T11:51:25.562Z,6.35
2018-02-03T11:52:25.528Z,7.66
2018-02-03T11:53:25.531Z,8.97
2018-02-03T11:54:25.538Z,8.08
2018-02-03T11:55:25.526Z,7.43
2018-02-03T11:56:25.542Z,7.36
2018-02-03T11:57:25.511Z,7.36
2018-02-03T11:58:25.550Z,6.97
2018-02-03T11:59:25.524Z,6.64
2018-02-03T12:00:25.543Z,6.16
2018-02-03T12:01:25.493Z,5.97
2018-02-03T12:02:25.589Z,5.72
2018-02-03T12:03:25.487Z,5.49
2018-02-03T12:04:25.514Z,5.20
2018-02-03T12:05:25.541Z,5.18
2018-02-03T12:06:25.489Z,5.15
2018-02-03T12:07:25.529Z,5.16
2018-02-03T12:08:25.504Z,5.05
2018-02-03T12:09:25.472Z,4.97
2018-02-03T12:10:25.490Z,4.83
2018-02-03T12:11:25.558Z,4.67
2018-02-03T12:12:25.459Z,4.43
2018-02-03T12:13:25.455Z,4.18
2018-02-03T12:14:25.443Z,4.07
2018-02-03T12:15:25.470Z,4.20
2018-02-03T12:17:25.468Z,4.42
2018-02-03T12:18:25.445Z,4.46
2018-02-03T12:19:25.461Z,4.34
2018-02-03T12:20:25.443Z,4.38
2018-02-03T12:21:25.443Z,4.39
2018-02-03T12:22:25.430Z,4.31
2018-02-03T12:23:46.438Z,4.42
2018-02-03T12:24:25.410Z,4.76
2018-02-03T12:25:25.453Z,4.94
2018-02-03T12:26:25.396Z,4.84
2018-02-03T12:27:25.532Z,4.98
2018-02-03T12:28:25.456Z,5.04
2018-02-03T12:29:46.390Z,5.16
2018-02-03T12:30:25.573Z,5.16
2018-02-03T12:31:25.376Z,5.16
2018-02-03T12:32:25.377Z,5.00
2018-02-03T12:33:25.409Z,4.89
2018-02-03T12:34:25.360Z,4.86
2018-02-03T12:35:46.513Z,4.83
2018-02-03T12:36:25.996Z,4.86
2018-02-03T12:37:25.411Z,4.83
2018-02-03T12:38:25.369Z,5.02
2018-02-03T12:39:25.333Z,5.20
2018-02-03T12:40:25.397Z,5.41
2018-02-03T12:41:46.318Z,5.62
2018-02-03T12:42:25.344Z,5.70
2018-02-03T12:43:25.380Z,5.72
2018-02-03T12:44:25.446Z,5.69
2018-02-03T12:45:25.313Z,5.67
2018-02-03T12:46:25.306Z,5.70
2018-02-03T12:47:46.338Z,5.52
2018-02-03T12:48:25.316Z,5.67
2018-02-03T12:49:25.281Z,5.37
2018-02-03T12:50:25.294Z,5.15
2018-02-03T12:51:25.278Z,5.08
2018-02-03T12:52:25.343Z,5.02
2018-02-03T12:53:46.305Z,4.95
2018-02-03T12:54:25.325Z,5.05
2018-02-03T12:55:25.280Z,5.01
2018-02-03T12:56:25.264Z,4.86
2018-02-03T12:57:25.338Z,4.98
2018-02-03T12:58:25.246Z,4.74
2018-02-03T12:59:46.256Z,4.71
2018-02-03T13:00:25.383Z,4.64
2018-02-03T13:01:25.235Z,4.43
2018-02-03T13:02:25.341Z,4.46
2018-02-03T13:03:25.261Z,4.50
2018-02-03T13:04:25.302Z,4.45